Time;durP1;ratioP1;P1;durP2;ratioP2;P2;SDS_P1;SDS_P2;PMS_P1;PMS_P2;Temp;Humidity;BMP_temperature;BMP_pressure;BME280_temperature;BME280_humidity;BME280_pressure;Samples;Min_cycle;Max_cycle;Signal;HPM_P1;HPM_P2
2022/10/11 04:01:48;;;;;;;12.18;7.53;;;;;;;13.90;69.59;101076.63;5606113;31;82510;-58
2022/10/11 04:04:50;;;;;;;11.20;7.03;;;;;;;13.90;69.59;101076.63;5583870;31;34074;-57
2022/10/11 04:07:52;;;;;;;15.65;7.05;;;;;;;13.49;72.12;101079.72;5583736;32;33916;-58
2022/10/11 04:10:55;;;;;;;10.55;7.18;;;;;;;13.54;71.26;101068.91;5586950;31;33561;-58
2022/10/11 04:13:57;;;;;;;10.60;7.62;;;;;;;13.65;71.50;101074.19;5603564;31;33566;-58
2022/10/11 04:16:59;;;;;;;14.13;7.60;;;;;;;13.78;69.93;101078.91;5602427;31;34333;-58
2022/10/11 04:20:02;;;;;;;11.70;7.10;;;;;;;13.84;69.75;101080.44;5603284;31;33730;-58
2022/10/11 04:23:04;;;;;;;11.45;7.60;;;;;;;13.88;69.24;101084.22;5600239;31;34368;-58
2022/10/11 04:26:07;;;;;;;9.07;6.15;;;;;;;13.93;68.47;101083.34;5601337;31;33627;-58
2022/10/11 04:29:10;;;;;;;10.13;7.37;;;;;;;13.84;69.48;101085.84;5601906;31;33654;-58
2022/10/11 04:32:12;;;;;;;12.25;6.97;;;;;;;13.89;68.95;101085.81;5591363;31;33495;-58
2022/10/11 04:35:15;;;;;;;13.43;6.90;;;;;;;13.93;68.56;101084.13;5583392;32;34233;-58
2022/10/11 04:38:17;;;;;;;10.88;7.05;;;;;;;13.87;68.75;101082.56;5581587;31;34317;-58
2022/10/11 04:41:19;;;;;;;11.00;7.20;;;;;;;13.88;70.41;101086.09;5583062;31;33711;-58
2022/10/11 04:44:21;;;;;;;10.30;6.70;;;;;;;13.81;70.47;101081.03;5585737;31;33763;-58
2022/10/11 04:47:24;;;;;;;14.63;7.18;;;;;;;13.77;70.82;101080.00;5584430;31;34307;-58
2022/10/11 04:50:26;;;;;;;11.90;7.43;;;;;;;13.89;70.32;101075.03;5586023;31;33821;-58
2022/10/11 04:53:31;;;;;;;8.37;6.17;;;;;;;13.88;70.90;101072.62;5587861;31;34431;-58
2022/10/11 04:56:33;;;;;;;12.88;6.75;;;;;;;13.92;68.24;101070.97;5581903;31;33922;-58
2022/10/11 04:59:35;;;;;;;11.05;6.95;;;;;;;14.04;68.36;101074.88;5583559;31;33554;-58
2022/10/11 05:02:37;;;;;;;16.92;7.32;;;;;;;14.02;68.71;101078.94;5587848;31;33940;-58
2022/10/11 05:05:40;;;;;;;32.28;8.18;;;;;;;14.06;70.39;101088.84;5581343;31;33641;-58
2022/10/11 05:08:42;;;;;;;12.55;6.47;;;;;;;14.12;69.48;101080.72;5576804;31;33384;-58
2022/10/11 05:11:44;;;;;;;19.48;7.47;;;;;;;14.08;68.88;101078.59;5568982;32;34004;-58
2022/10/11 05:14:46;;;;;;;18.33;7.30;;;;;;;14.17;68.42;101094.13;5574417;31;33708;-58
2022/10/11 05:17:49;;;;;;;11.68;6.55;;;;;;;14.27;68.36;101091.31;5567951;31;33593;-58
2022/10/11 05:21:18;;;;;;;24.63;7.53;;;;;;;14.22;68.60;101086.81;5567944;32;34223;-58
2022/10/11 05:24:20;;;;;;;12.73;7.30;;;;;;;14.27;68.00;101097.53;5565184;32;33462;-58
2022/10/11 05:27:22;;;;;;;19.62;7.97;;;;;;;14.28;68.67;101095.66;5570111;31;33584;-58
2022/10/11 05:30:25;;;;;;;18.15;7.35;;;;;;;14.29;67.45;101100.75;5588301;31;33753;-58
2022/10/11 05:33:27;;;;;;;12.80;7.40;;;;;;;14.36;66.70;101097.69;5570480;31;33779;-58
2022/10/11 05:36:29;;;;;;;30.42;7.82;;;;;;;14.29;67.53;101103.44;5577125;31;33707;-58
2022/10/11 05:39:32;;;;;;;13.13;7.78;;;;;;;14.32;67.46;101099.38;5568643;32;34282;-58
2022/10/11 05:42:34;;;;;;;47.45;9.30;;;;;;;14.40;66.99;101108.72;5563313;32;33402;-58
2022/10/11 05:45:38;;;;;;;42.38;9.40;;;;;;;14.37;68.16;101117.38;5579724;31;34292;-58
2022/10/11 05:48:40;;;;;;;21.05;7.62;;;;;;;14.38;68.35;101119.00;5575803;31;33202;-58
2022/10/11 05:51:42;;;;;;;23.75;8.60;;;;;;;14.41;66.43;101116.53;5575047;31;33617;-58
2022/10/11 05:54:45;;;;;;;22.05;8.25;;;;;;;14.51;66.36;101118.34;5567469;31;34340;-58
2022/10/11 05:57:47;;;;;;;23.42;8.05;;;;;;;14.52;65.82;101122.63;5575762;31;33772;-58
2022/10/11 06:00:49;;;;;;;31.85;8.40;;;;;;;14.54;65.64;101121.25;5584295;31;33588;-58
2022/10/11 06:03:52;;;;;;;202.23;17.67;;;;;;;14.54;67.54;101126.66;5582195;31;35303;-58
2022/10/11 06:06:54;;;;;;;40.12;9.57;;;;;;;14.61;67.62;101136.31;5571614;31;33877;-58
2022/10/11 06:09:56;;;;;;;14.50;7.47;;;;;;;14.74;65.09;101133.69;5572967;31;34256;-59
2022/10/11 06:12:59;;;;;;;12.95;6.90;;;;;;;14.71;64.23;101136.97;5576522;31;34242;-58
2022/10/11 06:16:05;;;;;;;13.23;6.53;;;;;;;14.79;64.33;101144.41;5568625;31;33840;-57
2022/10/11 06:19:08;;;;;;;15.48;7.25;;;;;;;14.77;64.42;101146.63;5566633;32;34416;-58
2022/10/11 06:22:11;;;;;;;43.90;7.75;;;;;;;14.76;63.19;101149.59;5567221;31;33125;-58
2022/10/11 06:25:13;;;;;;;386.02;29.65;;;;;;;14.76;63.32;101149.59;5574803;31;33602;-58
2022/10/11 06:28:15;;;;;;;79.15;9.57;;;;;;;14.83;62.53;101141.13;5576950;31;33385;-58
2022/10/11 06:31:17;;;;;;;18.37;6.22;;;;;;;14.91;61.10;101145.91;5573326;31;34306;-58
2022/10/11 06:34:20;;;;;;;21.58;6.57;;;;;;;14.95;61.75;101147.72;5576306;31;33817;-58
2022/10/11 06:37:22;;;;;;;591.85;40.05;;;;;;;15.07;60.73;101149.19;5572959;31;34367;-58
2022/10/11 06:40:24;;;;;;;192.13;14.48;;;;;;;14.99;61.49;101143.34;5560888;31;33705;-58
2022/10/11 06:43:26;;;;;;;10.40;6.53;;;;;;;14.96;63.30;101145.81;5554077;32;33377;-58
2022/10/11 06:46:30;;;;;;;68.40;9.25;;;;;;;15.04;60.69;101143.28;5568884;31;33594;-57
2022/10/11 06:49:32;;;;;;;277.85;21.48;;;;;;;15.10;60.51;101145.91;5564364;31;33675;-58
2022/10/11 06:52:35;;;;;;;23.85;6.78;;;;;;;15.07;61.56;101150.00;5564027;31;33448;-57
2022/10/11 06:55:38;;;;;;;10.52;6.05;;;;;;;15.07;62.24;101144.59;5568135;31;33423;-57
2022/10/11 06:58:40;;;;;;;211.73;18.83;;;;;;;15.01;61.60;101148.47;5561673;31;33921;-58
2022/10/11 07:01:43;;;;;;;77.80;8.98;;;;;;;15.03;63.04;101152.47;5565026;32;33697;-58
2022/10/11 07:04:45;;;;;;;14.80;7.50;;;;;;;15.12;61.72;101157.22;5566167;32;33872;-58
2022/10/11 07:07:47;;;;;;;14.82;6.93;;;;;;;15.15;61.50;101162.84;5568155;32;34392;-58
2022/10/11 07:10:50;;;;;;;12.07;6.25;;;;;;;15.13;62.64;101165.03;5572267;31;32407;-58
2022/10/11 07:13:58;;;;;;;9.45;6.00;;;;;;;14.97;59.93;101166.34;5567447;32;33878;-58
2022/10/11 07:17:00;;;;;;;11.65;6.82;;;;;;;14.92;61.61;101164.50;5577461;31;33886;-58
2022/10/11 07:20:03;;;;;;;11.63;6.78;;;;;;;14.98;60.82;101162.53;5575439;31;34322;-58
2022/10/11 07:23:05;;;;;;;14.00;7.12;;;;;;;15.06;60.90;101167.28;5572986;31;34324;-58
2022/10/11 07:26:09;;;;;;;11.45;7.20;;;;;;;15.21;60.30;101161.69;5566192;31;33854;-58
2022/10/11 07:29:12;;;;;;;13.85;6.85;;;;;;;15.23;60.65;101158.66;5568106;31;33715;-58
2022/10/11 07:32:15;;;;;;;12.20;7.18;;;;;;;15.32;60.83;101158.81;5569742;31;33564;-58
2022/10/11 07:35:17;;;;;;;15.32;7.32;;;;;;;15.41;61.93;101157.06;5574289;31;33570;-58
2022/10/11 07:38:19;;;;;;;11.05;6.95;;;;;;;15.62;61.79;101160.25;5566924;31;33687;-58
2022/10/11 07:41:22;;;;;;;19.25;7.47;;;;;;;15.67;61.71;101161.00;5571081;31;34305;-58
2022/10/11 07:44:25;;;;;;;11.90;7.65;;;;;;;15.74;60.99;101168.75;5569639;31;33597;-58
2022/10/11 07:47:27;;;;;;;14.35;8.05;;;;;;;15.80;60.48;101164.88;5563899;32;33623;-58
2022/10/11 07:50:29;;;;;;;10.57;8.02;;;;;;;15.90;59.91;101169.31;5565134;31;33505;-58
2022/10/11 07:53:43;;;;;;;13.95;7.35;;;;;;;15.88;59.95;101164.16;5561494;31;33782;-58
2022/10/11 07:56:45;;;;;;;282.42;23.90;;;;;;;16.05;60.52;101168.22;5566773;31;33103;-58
2022/10/11 07:59:48;;;;;;;16.90;7.75;;;;;;;15.96;60.31;101165.41;5570763;31;33533;-57
2022/10/11 08:02:51;;;;;;;13.43;7.30;;;;;;;15.96;59.64;101170.81;5565576;31;33892;-57
2022/10/11 08:05:59;;;;;;;16.52;8.60;;;;;;;16.01;60.09;101175.31;5563092;32;33559;-58
2022/10/11 08:09:01;;;;;;;393.20;31.42;;;;;;;15.96;60.39;101160.00;5567328;32;34326;-58
2022/10/11 08:12:04;;;;;;;19.33;9.05;;;;;;;16.07;60.13;101166.81;5564989;31;33112;-58
2022/10/11 08:15:06;;;;;;;95.80;13.43;;;;;;;15.97;60.97;101167.00;5563769;31;33629;-57
2022/10/11 08:18:08;;;;;;;21.83;9.45;;;;;;;16.08;61.60;101173.03;5560636;31;33700;-58
2022/10/11 08:21:12;;;;;;;74.15;13.05;;;;;;;16.11;60.98;101173.25;5568785;31;33745;-58
2022/10/11 08:24:19;;;;;;;18.70;9.63;;;;;;;16.07;61.23;101172.25;5569747;31;33935;-58
2022/10/11 08:27:21;;;;;;;29.12;9.85;;;;;;;16.12;61.69;101168.63;5572339;31;34293;-58
2022/10/11 08:30:24;;;;;;;13.15;8.27;;;;;;;16.15;63.30;101176.16;5562800;31;33573;-58
2022/10/11 08:33:26;;;;;;;21.17;8.32;;;;;;;16.26;62.10;101177.59;5558423;31;34075;-58
2022/10/11 08:36:28;;;;;;;17.77;8.73;;;;;;;16.36;60.77;101174.69;5567175;31;33768;-58
2022/10/11 08:39:31;;;;;;;16.80;9.27;;;;;;;16.40;60.72;101169.47;5576262;31;33148;-58
2022/10/11 08:42:44;;;;;;;15.13;8.95;;;;;;;16.49;60.93;101175.81;5570884;31;33750;-57
2022/10/11 08:45:51;;;;;;;15.98;9.15;;;;;;;16.59;61.27;101170.19;5564372;31;33681;-58
2022/10/11 08:48:54;;;;;;;20.83;9.05;;;;;;;16.62;60.48;101172.28;5569142;31;33905;-58
2022/10/11 08:52:01;;;;;;;27.42;9.98;;;;;;;16.66;61.26;101178.72;5561980;31;33688;-58
2022/10/11 08:55:06;;;;;;;26.70;9.82;;;;;;;16.76;60.98;101166.91;5556832;31;33934;-58
2022/10/11 08:58:14;;;;;;;13.57;9.53;;;;;;;16.79;60.56;101171.72;5562744;31;33567;-58
2022/10/11 09:01:21;;;;;;;18.60;9.45;;;;;;;16.84;59.79;101168.87;5563586;31;33697;-58
2022/10/11 09:04:23;;;;;;;20.23;10.15;;;;;;;16.92;60.41;101167.38;5567962;31;33221;-59
2022/10/11 09:07:43;;;;;;;20.37;9.88;;;;;;;16.88;61.05;101169.06;5575535;31;33579;-59
2022/10/11 09:11:33;;;;;;;20.08;9.38;;;;;;;16.89;60.90;101171.50;5558379;32;33579;-58
2022/10/11 09:14:54;;;;;;;17.27;10.35;;;;;;;16.90;60.49;101169.59;5562990;31;33407;-58
2022/10/11 09:18:18;;;;;;;15.30;10.05;;;;;;;16.95;60.04;101174.09;5562327;31;33695;-58
2022/10/11 09:22:11;;;;;;;15.50;10.85;;;;;;;16.99;60.88;101175.09;5563448;31;33897;-58
2022/10/11 09:25:54;;;;;;;25.35;12.60;;;;;;;17.03;60.38;101176.88;5537256;31;34366;-58
2022/10/11 09:29:15;;;;;;;20.37;11.60;;;;;;;17.10;60.94;101179.97;5556848;31;33192;-58
2022/10/11 09:32:22;;;;;;;29.65;14.95;;;;;;;17.12;61.63;101182.41;5568373;31;33057;-58
2022/10/11 09:35:30;;;;;;;17.58;12.60;;;;;;;17.17;62.46;101184.97;5569441;32;33583;-59
2022/10/11 09:38:40;;;;;;;21.30;13.65;;;;;;;17.20;62.25;101187.09;5567469;32;34475;-58
2022/10/11 09:42:06;;;;;;;24.77;14.05;;;;;;;17.30;63.06;101186.06;5574690;31;34258;-59
2022/10/11 09:45:19;;;;;;;677.05;51.10;;;;;;;17.27;64.60;101179.34;5588263;31;34355;-58
2022/10/11 09:48:26;;;;;;;28.65;13.93;;;;;;;17.38;63.71;101175.31;5569540;31;33674;-58
2022/10/11 09:51:28;;;;;;;;;;;;;;;17.42;63.66;101186.31;5579649;31;33650;-59
2022/10/11 09:54:42;;;;;;;166.30;21.62;;;;;;;17.49;63.16;101185.91;5580107;31;34615;-58
2022/10/11 09:57:53;;;;;;;22.15;14.63;;;;;;;17.58;62.68;101181.31;5572359;31;33802;-58
2022/10/11 10:01:10;;;;;;;28.25;14.27;;;;;;;17.49;62.00;101184.00;5560709;31;33943;-58
2022/10/11 10:04:17;;;;;;;23.12;14.52;;;;;;;17.56;62.82;101187.06;5575906;31;33615;-58
2022/10/11 10:07:21;;;;;;;21.00;14.00;;;;;;;17.60;63.07;101188.03;5572467;31;33746;-58
2022/10/11 10:10:25;;;;;;;21.25;13.40;;;;;;;17.73;62.81;101189.09;5577342;31;33860;-58
2022/10/11 10:13:39;;;;;;;20.62;14.30;;;;;;;17.66;62.92;101188.75;5578965;31;33718;-58
2022/10/11 10:16:42;;;;;;;17.30;14.10;;;;;;;17.69;63.64;101180.00;5578018;31;33632;-58
2022/10/11 10:19:50;;;;;;;23.58;15.27;;;;;;;17.83;63.18;101178.03;5577480;31;34304;-58
2022/10/11 10:22:53;;;;;;;18.87;14.10;;;;;;;17.82;62.98;101167.50;5579809;31;34368;-58
2022/10/11 10:26:12;;;;;;;19.73;14.80;;;;;;;17.93;63.25;101160.69;5574099;31;33943;-58
2022/10/11 10:29:17;;;;;;;21.98;14.73;;;;;;;17.99;62.46;101153.25;5569710;31;33574;-58
2022/10/11 10:32:25;;;;;;;20.62;13.55;;;;;;;18.00;62.50;101165.69;5568163;31;34155;-58
2022/10/11 10:35:50;;;;;;;21.85;14.55;;;;;;;18.06;63.08;101162.53;5562073;31;33704;-58
2022/10/11 10:39:00;;;;;;;20.60;14.48;;;;;;;18.13;62.34;101164.78;5565122;31;34268;-58
2022/10/11 10:42:10;;;;;;;18.00;13.30;;;;;;;18.08;62.32;101162.22;5566745;31;34359;-58
2022/10/11 10:45:16;;;;;;;25.55;15.40;;;;;;;18.05;62.94;101162.84;5568117;32;34277;-58
2022/10/11 10:48:36;;;;;;;20.62;14.43;;;;;;;18.04;62.24;101167.47;5570828;31;34303;-58
2022/10/11 10:52:04;;;;;;;;;;;;;;;18.05;62.41;101160.13;5562944;32;33800;-58
2022/10/11 10:55:21;;;;;;;20.00;13.80;;;;;;;18.14;62.59;101160.97;5568688;31;34069;-58
2022/10/11 10:58:45;;;;;;;24.63;14.35;;;;;;;18.23;62.26;101161.81;5575796;31;33728;-57
2022/10/11 11:02:10;;;;;;;18.87;13.77;;;;;;;18.35;61.67;101157.72;5565970;32;33595;-58
2022/10/11 11:05:44;;;;;;;28.85;13.93;;;;;;;18.27;61.43;101151.91;5569747;31;33519;-58
2022/10/11 11:08:47;;;;;;;23.83;13.95;;;;;;;18.25;62.48;101151.44;5576710;31;33651;-58
2022/10/11 11:12:06;;;;;;;20.88;13.57;;;;;;;18.28;63.13;101153.53;5572360;31;33732;-57
2022/10/11 11:15:27;;;;;;;17.65;13.75;;;;;;;18.35;62.32;101155.00;5579725;31;33668;-58
2022/10/11 11:19:22;;;;;;;22.70;14.63;;;;;;;18.35;61.29;101155.81;5566649;31;33855;-58
2022/10/11 11:22:41;;;;;;;21.25;13.05;;;;;;;18.37;61.32;101147.34;5551849;31;33626;-58
2022/10/11 11:26:06;;;;;;;22.73;15.10;;;;;;;18.37;62.88;101152.75;5569032;31;34334;-58
2022/10/11 11:29:35;;;;;;;28.35;14.95;;;;;;;18.42;61.53;101150.72;5567601;31;33940;-58
2022/10/11 11:32:40;;;;;;;20.65;14.63;;;;;;;18.42;62.97;101152.63;5581432;31;33776;-58
2022/10/11 11:35:54;;;;;;;22.95;13.90;;;;;;;18.42;61.96;101147.22;5569778;31;34319;-58
2022/10/11 11:39:00;;;;;;;28.42;16.10;;;;;;;18.43;61.66;101135.22;5567285;31;33498;-58
2022/10/11 11:42:12;;;;;;;20.95;13.90;;;;;;;18.49;62.43;101142.13;5567118;31;34305;-58
2022/10/11 11:45:22;;;;;;;26.40;14.32;;;;;;;18.56;63.01;101139.75;5565443;31;33874;-58
2022/10/11 11:48:25;;;;;;;18.83;15.20;;;;;;;18.66;62.44;101135.94;5563638;31;34346;-58
2022/10/11 11:51:32;;;;;;;39.60;15.40;;;;;;;18.70;61.21;101126.81;5571248;31;33847;-58
2022/10/11 11:54:47;;;;;;;95.70;18.12;;;;;;;18.65;61.47;101128.91;5570676;31;34428;-58
2022/10/11 11:58:28;;;;;;;34.65;15.18;;;;;;;18.69;61.68;101127.94;5565192;32;34268;-58
2022/10/11 12:02:28;;;;;;;25.65;15.07;;;;;;;18.73;62.76;101126.22;5564508;32;33878;-58
2022/10/11 12:05:34;;;;;;;29.05;15.75;;;;;;;18.83;61.52;101127.03;5504325;32;33620;-58
2022/10/11 12:08:40;;;;;;;20.75;15.35;;;;;;;18.92;60.41;101125.16;5502645;32;33932;-58
2022/10/11 12:12:05;;;;;;;24.15;14.73;;;;;;;18.81;60.15;101118.41;5561728;32;33956;-58
2022/10/11 12:15:07;;;;;;;21.07;14.67;;;;;;;18.86;59.95;101121.78;5568017;32;33782;-58
2022/10/11 12:18:15;;;;;;;19.25;14.90;;;;;;;18.86;60.45;101113.62;5567866;32;33080;-58
2022/10/11 12:21:33;;;;;;;23.45;15.95;;;;;;;18.85;61.90;101117.47;5568338;32;33698;-58
2022/10/11 12:24:54;;;;;;;24.17;15.95;;;;;;;18.95;60.98;101116.34;5568608;32;33658;-58
2022/10/11 12:27:59;;;;;;;25.58;15.77;;;;;;;18.98;60.17;101107.56;5569363;32;33554;-58
2022/10/11 12:31:16;;;;;;;25.93;15.07;;;;;;;18.95;61.00;101114.44;5569956;32;33865;-59
2022/10/11 12:34:34;;;;;;;28.92;15.23;;;;;;;18.96;60.31;101112.50;5569358;32;33844;-58
2022/10/11 12:38:03;;;;;;;20.95;14.07;;;;;;;18.98;61.79;101108.37;5558307;32;34335;-58
2022/10/11 12:41:08;;;;;;;21.33;12.70;;;;;;;18.99;61.83;101101.81;5540741;31;33741;-58
2022/10/11 12:44:29;;;;;;;44.43;16.60;;;;;;;19.03;64.32;101101.97;5562428;32;34341;-58
2022/10/11 12:47:54;;;;;;;23.77;15.77;;;;;;;19.02;61.24;101098.44;5550809;32;33729;-58
2022/10/11 12:51:15;;;;;;;27.98;15.80;;;;;;;19.03;60.90;101099.25;5566379;32;33791;-58
2022/10/11 12:54:23;;;;;;;22.13;16.45;;;;;;;19.10;60.12;101099.56;5568382;32;34254;-58
2022/10/11 12:58:06;;;;;;;27.37;15.82;;;;;;;19.18;60.36;101101.50;5569949;32;33765;-59
2022/10/11 13:01:12;;;;;;;25.67;15.48;;;;;;;19.23;59.76;101093.16;5554137;32;33761;-58
2022/10/11 13:04:19;;;;;;;18.33;14.05;;;;;;;19.22;60.77;101096.22;5570201;32;33504;-58
2022/10/11 13:07:22;;;;;;;;;;;;;;;19.25;60.39;101090.94;5569768;32;34397;-58
2022/10/11 13:10:34;;;;;;;32.13;15.82;;;;;;;19.22;61.27;101099.72;5560223;32;34601;-58
2022/10/11 13:14:13;;;;;;;26.95;14.75;;;;;;;19.28;60.14;101091.41;5568786;32;34263;-58
2022/10/11 13:17:20;;;;;;;35.03;14.30;;;;;;;19.27;60.69;101098.78;5564812;32;34376;-58
2022/10/11 13:20:25;;;;;;;19.45;13.27;;;;;;;19.21;62.38;101100.84;5570197;32;33500;-58
2022/10/11 13:23:33;;;;;;;27.83;15.10;;;;;;;19.13;61.10;101101.63;5568879;32;33834;-58
2022/10/11 13:26:37;;;;;;;23.98;15.48;;;;;;;19.18;61.05;101101.50;5569332;32;34486;-58
2022/10/11 13:29:43;;;;;;;20.98;14.73;;;;;;;19.04;61.77;101098.16;5566026;32;33843;-58
2022/10/11 13:32:46;;;;;;;28.35;14.82;;;;;;;18.98;62.01;101100.22;5564511;32;33955;-58
2022/10/11 13:35:49;;;;;;;27.73;16.02;;;;;;;18.93;62.34;101105.00;5570093;32;33779;-58
2022/10/11 13:38:58;;;;;;;31.83;16.05;;;;;;;18.95;61.95;101100.06;5569467;32;34269;-58
2022/10/11 13:42:04;;;;;;;20.58;14.68;;;;;;;18.88;62.32;101102.44;5569534;32;34638;-58
2022/10/11 13:45:15;;;;;;;26.17;14.13;;;;;;;18.88;62.59;101100.53;5569362;32;34604;-58
2022/10/11 13:48:18;;;;;;;29.48;14.60;;;;;;;18.85;63.00;101101.16;5569657;32;34281;-59
2022/10/11 13:51:34;;;;;;;30.55;14.90;;;;;;;18.82;64.35;101103.72;5569843;32;33705;-58
2022/10/11 13:55:02;;;;;;;35.83;14.38;;;;;;;18.76;63.79;101095.72;5569928;32;33469;-58
2022/10/11 13:58:34;;;;;;;144.13;20.15;;;;;;;18.76;64.40;101105.78;5567449;32;34395;-58
2022/10/11 14:01:39;;;;;;;86.53;18.17;;;;;;;18.79;64.33;101099.72;5569489;32;33851;-58
2022/10/11 14:04:41;;;;;;;20.30;14.57;;;;;;;18.85;63.60;101109.31;5569451;32;34553;-58
2022/10/11 14:07:46;;;;;;;70.45;17.10;;;;;;;18.90;62.17;101092.84;5569074;32;33679;-58
2022/10/11 14:10:50;;;;;;;85.93;17.92;;;;;;;18.92;63.07;101103.41;5568215;32;33654;-58
2022/10/11 14:13:58;;;;;;;88.60;19.52;;;;;;;18.92;64.15;101106.91;5568927;32;34221;-58
2022/10/11 14:17:04;;;;;;;44.63;16.95;;;;;;;18.96;64.87;101098.94;5568012;32;34434;-58
2022/10/11 14:20:25;;;;;;;26.75;14.93;;;;;;;18.96;65.42;101102.44;5569157;32;33642;-58
2022/10/11 14:23:34;;;;;;;50.38;16.42;;;;;;;19.00;62.53;101094.44;5569559;32;34288;-58
2022/10/11 14:26:51;;;;;;;23.42;14.00;;;;;;;18.96;62.05;101093.50;5568586;32;33807;-58
2022/10/11 14:29:55;;;;;;;22.75;15.20;;;;;;;18.98;62.02;101105.66;5567738;32;34162;-58
2022/10/11 14:33:24;;;;;;;20.50;13.48;;;;;;;18.93;63.16;101096.84;5569318;32;33478;-58
2022/10/11 14:36:27;;;;;;;26.70;14.90;;;;;;;18.89;62.98;101102.13;5569257;32;33643;-58
2022/10/11 14:39:30;;;;;;;46.13;14.73;;;;;;;18.85;64.56;101095.72;5550726;32;33286;-58
2022/10/11 14:42:33;;;;;;;54.38;16.08;;;;;;;18.86;64.92;101110.91;5569338;32;33634;-58
2022/10/11 14:45:36;;;;;;;75.00;16.48;;;;;;;18.85;64.23;101100.38;5567930;32;33727;-58
2022/10/11 14:48:38;;;;;;;32.25;14.10;;;;;;;18.78;64.88;101101.63;5569105;32;33320;-58
2022/10/11 14:51:57;;;;;;;26.00;13.27;;;;;;;18.77;64.60;101102.75;5567131;32;33758;-58
2022/10/11 14:55:00;;;;;;;30.12;13.60;;;;;;;18.74;64.49;101106.12;5569150;32;33733;-58
2022/10/11 14:58:03;;;;;;;18.17;13.68;;;;;;;18.69;65.18;101108.94;5568064;32;33641;-58
2022/10/11 15:01:09;;;;;;;28.52;13.75;;;;;;;18.69;64.62;101102.72;5565864;32;34367;-58
2022/10/11 15:04:12;;;;;;;18.60;12.35;;;;;;;18.68;65.09;101114.69;5568379;32;34363;-58
2022/10/11 15:07:14;;;;;;;67.80;15.43;;;;;;;18.68;64.65;101106.56;5568579;32;33750;-58
2022/10/11 15:10:22;;;;;;;84.07;15.82;;;;;;;18.67;66.02;101104.94;5566639;32;34322;-58
2022/10/11 15:13:24;;;;;;;40.72;13.75;;;;;;;18.65;66.52;101099.84;5565182;32;34378;-58
2022/10/11 15:16:26;;;;;;;44.45;14.60;;;;;;;18.67;65.78;101111.16;5568659;32;34493;-58
2022/10/11 15:19:29;;;;;;;25.50;13.27;;;;;;;18.68;66.00;101114.69;5569073;32;33690;-58
2022/10/11 15:22:31;;;;;;;24.05;12.80;;;;;;;18.67;65.67;101121.22;5568910;32;33674;-58
2022/10/11 15:25:33;;;;;;;20.85;12.25;;;;;;;18.62;65.90;101115.97;5569057;32;34571;-58
2022/10/11 15:28:35;;;;;;;21.77;11.90;;;;;;;18.55;66.16;101114.50;5569097;32;33868;-58
2022/10/11 15:31:38;;;;;;;15.93;12.25;;;;;;;18.53;66.11;101118.63;5569133;32;33870;-58
2022/10/11 15:34:40;;;;;;;20.95;12.73;;;;;;;18.48;66.10;101122.31;5568981;32;33757;-58
2022/10/11 15:37:43;;;;;;;25.12;13.05;;;;;;;18.44;66.01;101121.34;5569103;32;33651;-58
2022/10/11 15:40:46;;;;;;;25.83;12.85;;;;;;;18.44;66.28;101128.66;5569239;32;34369;-58
2022/10/11 15:43:49;;;;;;;20.60;12.82;;;;;;;18.41;66.33;101124.69;5569128;32;33630;-58
